createdAt,value
2018-12-06T00:03:46.633Z,9.43
2018-12-06T00:13:47.894Z,8.50
2018-12-06T00:23:49.158Z,8.40
2018-12-06T00:33:51.198Z,8.60
2018-12-06T00:43:52.695Z,9.23
2018-12-06T00:53:53.942Z,8.87
2018-12-06T01:03:55.217Z,8.90
2018-12-06T01:13:56.482Z,8.93
2018-12-06T01:23:57.728Z,8.33
2018-12-06T01:33:58.996Z,7.27
2018-12-06T01:44:00.265Z,7.50
2018-12-06T01:54:01.549Z,7.70
2018-12-06T02:04:03.817Z,7.27
2018-12-06T02:14:05.085Z,6.80
2018-12-06T02:24:06.353Z,7.70
2018-12-06T02:34:08.389Z,8.17
2018-12-06T02:44:09.665Z,7.37
2018-12-06T02:54:11.714Z,7.30
2018-12-06T03:04:12.987Z,6.90
2018-12-06T03:14:14.232Z,7.43
2018-12-06T03:24:15.497Z,6.97
2018-12-06T03:34:16.774Z,6.80
2018-12-06T03:44:18.033Z,6.90
2018-12-06T03:54:19.313Z,5.97
2018-12-06T04:04:20.574Z,7.40
2018-12-06T04:14:22.066Z,7.07
2018-12-06T04:34:30.551Z,6.43
2018-12-06T04:44:31.794Z,7.20
2018-12-06T04:54:33.040Z,7.83
2018-12-06T05:04:34.306Z,6.63
2018-12-06T05:14:35.549Z,7.43
2018-12-06T11:34:19.286Z,14.00
2018-12-06T11:44:20.530Z,12.90
2018-12-06T11:54:21.783Z,14.13
2018-12-06T12:04:23.032Z,14.03
2018-12-06T12:14:25.067Z,13.70
2018-12-06T12:24:26.336Z,14.20
2018-12-06T12:34:27.599Z,13.30
2018-12-06T12:44:28.886Z,15.37
2018-12-06T12:54:30.161Z,14.47
2018-12-06T13:04:31.431Z,14.30
2018-12-06T13:14:33.476Z,13.97
2018-12-06T13:24:35.062Z,13.47
2018-12-06T13:44:44.061Z,12.60
2018-12-06T13:54:45.301Z,13.80
2018-12-06T14:04:46.637Z,14.17
2018-12-06T14:14:47.915Z,14.60
2018-12-06T14:24:49.241Z,14.07
2018-12-06T14:34:50.509Z,13.60
2018-12-06T14:44:51.777Z,14.47
2018-12-06T14:54:53.797Z,14.90
2018-12-06T15:04:55.073Z,17.10
2018-12-06T15:14:57.120Z,16.10
2018-12-06T15:24:58.384Z,16.03
2018-12-06T15:35:00.426Z,17.37
2018-12-06T15:45:01.690Z,17.53
2018-12-06T16:15:21.118Z,18.33
2018-12-06T16:55:43.521Z,14.63
2018-12-06T17:05:44.789Z,20.00
2018-12-06T17:15:46.092Z,18.60
